Time;durP1;ratioP1;P1;durP2;ratioP2;P2;SDS_P1;SDS_P2;PMS_P1;PMS_P2;Temp;Humidity;BMP_temperature;BMP_pressure;BME280_temperature;BME280_humidity;BME280_pressure;Samples;Min_cycle;Max_cycle;Signal;HPM_P1;HPM_P2
2021/12/14 00:01:42;;;;;;;23.23;16.77;;;;;;;7.53;100.00;102492.34;4952570;28;20053;-77
2021/12/14 00:04:26;;;;;;;21.05;16.02;;;;;;;7.52;100.00;102498.41;4994250;28;20038;-78
2021/12/14 00:06:56;;;;;;;22.88;17.10;;;;;;;7.52;100.00;102496.69;4989573;28;20049;-78
2021/12/14 00:09:30;;;;;;;19.38;15.60;;;;;;;7.52;100.00;102496.69;4983267;28;20050;-78
2021/12/14 00:17:26;;;;;;;22.02;16.02;;;;;;;7.53;100.00;102498.47;4999175;28;20515;-78
2021/12/14 00:19:59;;;;;;;20.70;15.32;;;;;;;7.52;100.00;102501.03;5000719;28;20029;-77
2021/12/14 00:24:06;;;;;;;19.30;15.40;;;;;;;7.50;100.00;102503.59;5005757;28;20419;-78
2021/12/14 00:26:29;;;;;;;13.70;11.95;;;;;;;7.48;100.00;102500.00;5013669;28;20046;-79
2021/12/14 00:29:19;;;;;;;18.55;15.07;;;;;;;7.48;100.00;102507.00;4956831;28;20064;-78
2021/12/14 00:31:49;;;;;;;21.73;16.42;;;;;;;7.50;100.00;102513.19;4951700;28;20034;-78
2021/12/14 00:34:24;;;;;;;;;;;;;;;7.47;100.00;102523.56;5002895;28;20060;-78
2021/12/14 00:36:52;;;;;;;20.05;16.15;;;;;;;7.47;100.00;102518.34;4998722;28;20612;-78
2021/12/14 00:39:21;;;;;;;19.65;15.43;;;;;;;7.46;100.00;102521.78;5007649;28;20048;-78
2021/12/14 00:41:49;;;;;;;24.90;17.33;;;;;;;7.46;100.00;102521.78;4964215;28;20038;-78
2021/12/14 00:44:18;;;;;;;19.10;15.38;;;;;;;7.45;100.00;102526.13;4972152;28;20045;-77
2021/12/14 00:46:48;;;;;;;23.58;15.82;;;;;;;7.45;100.00;102522.59;4986243;28;20044;-77
2021/12/14 00:49:17;;;;;;;23.92;15.27;;;;;;;7.42;100.00;102513.75;4981832;28;20052;-78
2021/12/14 00:51:46;;;;;;;19.60;15.20;;;;;;;7.42;100.00;102516.38;4993329;28;20403;-79
2021/12/14 00:54:16;;;;;;;22.95;15.65;;;;;;;7.42;100.00;102505.00;4997348;28;20373;-78
2021/12/14 00:56:47;;;;;;;19.75;16.13;;;;;;;7.43;100.00;102514.69;5004497;28;20033;-78
2021/12/14 00:59:20;;;;;;;19.85;15.65;;;;;;;7.41;100.00;102504.13;5011387;28;20490;-78
2021/12/14 01:02:03;;;;;;;18.67;15.07;;;;;;;7.40;100.00;102504.94;4980483;28;20251;-77
2021/12/14 01:04:38;;;;;;;19.95;15.90;;;;;;;7.40;100.00;102498.78;5000829;28;20525;-78
2021/12/14 01:07:09;;;;;;;20.92;15.88;;;;;;;7.39;100.00;102495.28;4966812;28;20180;-78
2021/12/14 01:09:41;;;;;;;24.77;16.05;;;;;;;7.36;100.00;102495.16;4989132;28;20049;-77
2021/12/14 01:12:20;;;;;;;19.10;14.93;;;;;;;7.35;100.00;102484.59;4980911;28;20450;-78
2021/12/14 01:15:11;;;;;;;19.65;15.70;;;;;;;7.35;100.00;102481.97;4974995;28;20035;-78
2021/12/14 01:17:54;;;;;;;20.25;15.95;;;;;;;7.35;100.00;102477.63;4977256;28;20504;-78
2021/12/14 01:20:30;;;;;;;19.02;15.82;;;;;;;7.34;100.00;102461.81;4957633;28;20054;-78
2021/12/14 01:23:03;;;;;;;19.98;15.50;;;;;;;7.34;100.00;102475.81;4945964;28;20049;-77
2021/12/14 01:25:37;;;;;;;20.17;15.20;;;;;;;7.34;100.00;102469.69;4971675;28;20049;-77
2021/12/14 01:28:10;;;;;;;20.45;15.20;;;;;;;7.33;100.00;102467.88;4982260;28;20570;-78
2021/12/14 01:31:10;;;;;;;19.38;14.52;;;;;;;7.34;100.00;102470.59;4992957;28;20042;-78
2021/12/14 01:33:42;;;;;;;21.00;14.98;;;;;;;7.34;100.00;102467.06;4939775;28;20504;-78
2021/12/14 01:36:25;;;;;;;19.77;15.43;;;;;;;7.34;100.00;102474.94;4987499;28;20045;-77
2021/12/14 01:41:40;;;;;;;20.27;15.35;;;;;;;7.35;100.00;102472.38;5012760;28;20510;-78
2021/12/14 01:44:10;;;;;;;;;;;;;;;7.34;100.00;102475.81;4967060;28;20448;-78
2021/12/14 01:46:53;;;;;;;17.58;14.95;;;;;;;7.36;100.00;102473.28;4991039;28;19928;-78
2021/12/14 01:49:40;;;;;;;18.92;13.80;;;;;;;7.36;100.00;102468.91;4980612;28;20042;-78
2021/12/14 01:52:37;;;;;;;19.65;15.07;;;;;;;7.34;100.00;102485.44;4980190;28;20523;-78
2021/12/14 01:55:14;;;;;;;16.88;13.68;;;;;;;7.34;100.00;102475.81;4979341;28;20349;-79
2021/12/14 01:57:43;;;;;;;16.20;13.43;;;;;;;7.34;100.00;102481.06;4985632;28;20503;-78
2021/12/14 02:00:24;;;;;;;19.27;15.13;;;;;;;7.34;100.00;102490.69;4977263;28;20045;-79
2021/12/14 02:02:53;;;;;;;21.08;15.00;;;;;;;7.34;100.00;102483.69;4934399;28;20062;-77
2021/12/14 02:05:29;;;;;;;17.75;14.13;;;;;;;7.36;100.00;102473.28;4964824;28;20047;-77
2021/12/14 02:08:01;;;;;;;16.83;13.82;;;;;;;7.34;100.00;102470.59;4947764;28;20034;-76
2021/12/14 02:10:34;;;;;;;17.85;14.05;;;;;;;7.33;100.00;102479.25;4944272;28;20042;-77
2021/12/14 02:13:05;;;;;;;19.35;14.65;;;;;;;7.34;100.00;102480.19;4957728;28;20034;-77
2021/12/14 02:15:41;;;;;;;18.15;13.77;;;;;;;7.35;100.00;102481.97;4952466;28;20066;-77
2021/12/14 02:18:19;;;;;;;20.27;15.15;;;;;;;7.33;100.00;102487.13;4950963;28;20046;-77
2021/12/14 02:21:02;;;;;;;17.98;14.18;;;;;;;7.33;100.00;102481.88;4924893;28;20049;-77
2021/12/14 02:23:34;;;;;;;18.13;13.93;;;;;;;7.32;100.00;102472.25;4947346;28;20050;-78
2021/12/14 02:26:07;;;;;;;19.23;15.15;;;;;;;7.31;100.00;102473.06;4942045;28;20042;-77
2021/12/14 02:28:37;;;;;;;19.95;15.50;;;;;;;7.31;100.00;102475.69;4944208;28;20042;-77
2021/12/14 02:31:10;;;;;;;20.27;15.25;;;;;;;7.29;100.00;102479.97;4932790;28;20572;-77
2021/12/14 02:33:41;;;;;;;20.67;16.50;;;;;;;7.27;100.00;102472.88;4932542;28;20054;-77
2021/12/14 02:36:18;;;;;;;23.67;18.42;;;;;;;7.25;100.00;102478.06;4893710;28;20050;-77
2021/12/14 02:38:49;;;;;;;24.85;18.08;;;;;;;7.24;100.00;102465.78;4948816;28;20396;-77
2021/12/14 02:41:19;;;;;;;26.23;19.08;;;;;;;7.21;100.00;102468.28;4946783;28;20051;-77
2021/12/14 02:43:56;;;;;;;29.58;20.25;;;;;;;7.20;100.00;102466.47;4938250;28;20081;-77
2021/12/14 02:46:41;;;;;;;28.02;20.25;;;;;;;7.17;100.00;102472.47;4952556;28;20492;-77
2021/12/14 02:49:14;;;;;;;30.77;20.05;;;;;;;7.17;100.00;102468.97;4951512;28;20035;-78
2021/12/14 02:51:51;;;;;;;27.90;20.67;;;;;;;7.15;100.00;102462.78;4922340;28;20042;-77
2021/12/14 02:54:24;;;;;;;31.00;21.15;;;;;;;7.14;100.00;102455.72;4950723;28;20388;-77
2021/12/14 02:56:59;;;;;;;28.67;20.15;;;;;;;7.15;100.00;102452.28;4941179;28;20347;-77
2021/12/14 02:59:32;;;;;;;33.38;20.80;;;;;;;7.13;100.00;102449.59;4926683;28;20070;-77
2021/12/14 03:02:05;;;;;;;33.78;22.08;;;;;;;7.13;100.00;102446.09;4962596;28;20065;-77
2021/12/14 03:04:42;;;;;;;31.60;21.52;;;;;;;7.13;100.00;102448.69;4956887;28;20055;-77
2021/12/14 03:07:12;;;;;;;27.77;21.23;;;;;;;7.11;100.00;102447.75;4946767;28;20046;-76
2021/12/14 03:12:37;;;;;;;31.25;23.45;;;;;;;7.09;100.00;102441.50;4965924;28;20042;-78
2021/12/14 03:15:14;;;;;;;31.90;21.92;;;;;;;7.08;100.00;102437.13;4953332;28;20069;-77
2021/12/14 03:17:44;;;;;;;29.17;21.33;;;;;;;7.07;100.00;102433.59;4970280;28;20035;-77
2021/12/14 03:20:18;;;;;;;29.48;21.30;;;;;;;7.07;100.00;102438.84;4923134;28;20077;-78
2021/12/14 03:22:55;;;;;;;38.50;23.33;;;;;;;7.08;100.00;102442.34;4934844;28;20039;-77
2021/12/14 03:25:25;;;;;;;31.48;22.63;;;;;;;7.09;100.00;102444.13;4962920;28;20042;-77
2021/12/14 03:27:57;;;;;;;36.42;23.00;;;;;;;7.11;100.00;102439.88;4927580;28;20035;-77
2021/12/14 03:30:26;;;;;;;34.47;22.83;;;;;;;7.11;100.00;102440.75;4961431;28;20058;-78
2021/12/14 03:33:07;;;;;;;32.60;22.50;;;;;;;7.11;100.00;102437.25;4967380;28;20051;-77
2021/12/14 03:35:54;;;;;;;33.35;22.92;;;;;;;7.11;100.00;102446.00;4960896;28;20042;-77
2021/12/14 03:38:33;;;;;;;32.20;23.05;;;;;;;7.11;100.00;102432.03;4971853;28;20049;-77
2021/12/14 03:41:09;;;;;;;35.00;23.35;;;;;;;7.11;100.00;102432.03;4939548;28;20049;-77
2021/12/14 03:43:42;;;;;;;32.20;22.35;;;;;;;7.10;100.00;102423.22;4956544;28;20057;-77
2021/12/14 03:46:14;;;;;;;32.45;22.35;;;;;;;7.10;100.00;102424.97;4962415;28;20042;-78
2021/12/14 03:48:42;;;;;;;29.08;21.45;;;;;;;7.11;100.00;102426.78;4937756;28;20038;-77
2021/12/14 03:51:12;;;;;;;29.75;22.90;;;;;;;7.12;100.00;102432.06;4970754;28;20042;-77
2021/12/14 03:53:42;;;;;;;29.02;21.73;;;;;;;7.13;100.00;102430.34;4942153;28;20403;-77
2021/12/14 03:56:10;;;;;;;33.58;21.95;;;;;;;7.11;100.00;102435.53;4946700;28;20081;-77
2021/12/14 03:58:40;;;;;;;31.55;22.00;;;;;;;7.14;100.00;102432.13;4948996;28;20037;-77
2021/12/14 04:01:15;;;;;;;30.90;21.27;;;;;;;7.14;100.00;102427.78;4947277;28;20556;-77
2021/12/14 04:03:57;;;;;;;28.98;20.98;;;;;;;7.16;100.00;102431.34;4932722;28;20057;-77
2021/12/14 04:06:31;;;;;;;31.15;21.95;;;;;;;7.19;100.00;102433.22;4967632;28;20046;-77
2021/12/14 04:09:00;;;;;;;29.05;21.10;;;;;;;7.18;100.00;102431.41;4948922;28;20411;-77
2021/12/14 04:11:29;;;;;;;31.85;22.58;;;;;;;7.21;100.00;102434.19;4947099;28;20055;-77
2021/12/14 04:13:58;;;;;;;36.50;24.63;;;;;;;7.21;100.00;102431.56;4958185;28;20547;-77
2021/12/14 04:16:40;;;;;;;33.95;22.85;;;;;;;7.20;100.00;102430.69;4948581;28;20049;-78
2021/12/14 04:19:12;;;;;;;32.05;23.45;;;;;;;7.21;100.00;102432.44;4985396;28;20065;-77
2021/12/14 04:21:44;;;;;;;33.47;23.50;;;;;;;7.21;100.00;102432.44;4966433;28;20050;-77
2021/12/14 04:24:23;;;;;;;32.75;23.58;;;;;;;7.23;100.00;102435.16;4948163;28;20518;-77
2021/12/14 04:26:55;;;;;;;28.63;21.33;;;;;;;7.22;100.00;102418.53;4939064;28;20447;-77
2021/12/14 04:29:24;;;;;;;29.45;21.55;;;;;;;7.22;100.00;102421.16;4965105;28;20057;-77
2021/12/14 04:31:53;;;;;;;34.08;23.17;;;;;;;7.24;100.00;102418.59;4928106;28;20439;-77
2021/12/14 04:34:23;;;;;;;33.67;23.53;;;;;;;7.23;100.00;102428.16;4965155;28;20388;-77
2021/12/14 04:36:53;;;;;;;34.88;24.55;;;;;;;7.22;100.00;102421.16;4949182;28;20046;-77
2021/12/14 04:53:44;;;;;;;35.90;25.00;;;;;;;7.18;100.00;102419.22;4969214;28;20039;-77
2021/12/14 04:56:25;;;;;;;33.75;22.17;;;;;;;7.17;100.00;102430.53;4915196;28;20043;-77
2021/12/14 04:59:00;;;;;;;37.55;25.70;;;;;;;7.16;100.00;102431.34;4944739;28;20047;-77
2021/12/14 05:01:33;;;;;;;37.42;25.38;;;;;;;7.17;100.00;102437.50;4959059;28;20062;-77
2021/12/14 05:04:08;;;;;;;37.50;24.40;;;;;;;7.17;100.00;102441.03;4957807;28;20042;-77
2021/12/14 05:06:51;;;;;;;37.08;24.58;;;;;;;7.17;100.00;102432.28;4934763;28;20065;-76
2021/12/14 05:09:34;;;;;;;38.72;25.25;;;;;;;7.17;100.00;102427.03;4953899;28;20035;-76
2021/12/14 05:12:17;;;;;;;40.67;25.27;;;;;;;7.16;100.00;102417.34;4938580;28;20405;-76
2021/12/14 05:15:08;;;;;;;41.28;25.55;;;;;;;7.16;100.00;102410.38;4961749;28;20649;-77
2021/12/14 05:17:44;;;;;;;35.88;25.90;;;;;;;7.16;100.00;102406.88;4944492;28;20522;-77
2021/12/14 05:20:15;;;;;;;39.75;26.15;;;;;;;7.15;100.00;102407.72;4968885;28;20503;-77
2021/12/14 05:22:47;;;;;;;40.58;26.60;;;;;;;7.15;100.00;102405.97;4970373;28;20054;-77
2021/12/14 05:25:26;;;;;;;37.80;25.50;;;;;;;7.14;100.00;102408.53;4962546;28;20042;-77
2021/12/14 05:28:09;;;;;;;41.45;27.17;;;;;;;7.12;100.00;102416.31;4911281;28;20034;-77
2021/12/14 05:30:46;;;;;;;39.38;26.20;;;;;;;7.13;100.00;102417.25;4968400;28;20049;-77
2021/12/14 05:33:28;;;;;;;39.45;26.15;;;;;;;7.14;100.00;102416.41;4957359;28;20632;-77
2021/12/14 05:36:07;;;;;;;37.83;25.42;;;;;;;7.16;100.00;102430.47;4936332;28;20331;-77
2021/12/14 05:38:54;;;;;;;40.20;27.33;;;;;;;7.16;100.00;102443.56;4970820;28;20046;-77
2021/12/14 05:44:52;;;;;;;38.78;27.02;;;;;;;7.17;100.00;102451.50;4932255;28;20046;-77
2021/12/14 05:47:22;;;;;;;39.47;26.67;;;;;;;7.17;100.00;102450.63;4963385;28;20042;-77
2021/12/14 05:50:06;;;;;;;40.88;27.42;;;;;;;7.19;100.00;102446.34;4962278;28;20043;-77
2021/12/14 05:52:36;;;;;;;37.20;26.40;;;;;;;7.18;100.00;102444.53;4987974;28;20049;-77
2021/12/14 05:55:21;;;;;;;44.40;27.23;;;;;;;7.19;100.00;102451.56;4947433;28;20372;-77
2021/12/14 05:57:52;;;;;;;40.63;26.52;;;;;;;7.19;100.00;102444.59;4952267;28;20046;-77
2021/12/14 06:00:21;;;;;;;43.30;27.58;;;;;;;7.20;100.00;102435.00;4959603;28;20510;-77
2021/12/14 06:02:59;;;;;;;39.05;25.45;;;;;;;7.20;100.00;102456.91;4960585;28;20042;-77
2021/12/14 06:05:31;;;;;;;39.50;26.83;;;;;;;7.21;100.00;102449.91;4961569;28;20042;-77
2021/12/14 06:08:01;;;;;;;46.38;29.60;;;;;;;7.22;100.00;102449.06;4944690;28;20034;-77
2021/12/14 06:10:31;;;;;;;46.00;27.92;;;;;;;7.22;100.00;102449.06;4971533;28;20043;-77
2021/12/14 06:13:00;;;;;;;48.03;29.45;;;;;;;7.21;100.00;102445.56;4951684;28;20046;-77
2021/12/14 06:15:31;;;;;;;42.72;30.10;;;;;;;7.22;100.00;102455.22;4947190;28;20504;-77
2021/12/14 06:18:23;;;;;;;51.53;31.48;;;;;;;7.20;100.00;102459.50;4969245;28;20042;-77
2021/12/14 06:21:31;;;;;;;52.42;31.52;;;;;;;7.19;100.00;102462.06;4972909;28;20058;-77
2021/12/14 06:24:04;;;;;;;51.15;30.70;;;;;;;7.17;100.00;102459.38;4964565;28;20046;-78
2021/12/14 06:26:45;;;;;;;59.60;32.35;;;;;;;7.18;100.00;102457.63;4972721;28;20055;-77
2021/12/14 06:29:30;;;;;;;54.75;31.58;;;;;;;7.16;100.00;102460.19;4971595;28;20396;-77
2021/12/14 06:32:11;;;;;;;56.10;30.73;;;;;;;7.15;100.00;102462.78;4949437;28;20292;-78
2021/12/14 06:34:53;;;;;;;51.00;30.00;;;;;;;7.13;100.00;102467.94;4983001;28;20045;-78
2021/12/14 06:40:26;;;;;;;53.92;32.25;;;;;;;7.13;100.00;102474.91;4908050;28;20070;-78
2021/12/14 06:43:00;;;;;;;51.83;31.42;;;;;;;7.12;100.00;102474.00;4963390;28;20557;-77
2021/12/14 06:45:43;;;;;;;55.97;33.25;;;;;;;7.11;100.00;102481.81;4966806;28;20030;-77
2021/12/14 06:48:22;;;;;;;56.95;33.05;;;;;;;7.12;100.00;102476.63;4954754;28;20061;-78
2021/12/14 06:50:53;;;;;;;60.22;34.35;;;;;;;7.11;100.00;102466.09;4941737;28;20391;-77
2021/12/14 06:53:49;;;;;;;65.13;35.17;;;;;;;7.11;100.00;102472.22;4957673;28;20045;-77
2021/12/14 06:56:34;;;;;;;59.22;34.60;;;;;;;7.11;100.00;102466.09;4958887;28;20455;-78
2021/12/14 06:59:21;;;;;;;55.00;33.80;;;;;;;7.11;100.00;102461.75;4961918;28;20199;-78
2021/12/14 07:02:13;;;;;;;64.90;34.67;;;;;;;7.11;100.00;102463.47;4934072;28;20058;-77
2021/12/14 07:05:04;;;;;;;64.18;34.17;;;;;;;7.11;100.00;102464.38;4955816;28;20542;-78
2021/12/14 07:07:37;;;;;;;57.67;32.63;;;;;;;7.12;100.00;102473.13;4964827;28;20652;-78
2021/12/14 07:10:12;;;;;;;59.53;34.35;;;;;;;7.11;100.00;102474.84;4955662;28;20068;-80
2021/12/14 07:12:41;;;;;;;57.10;33.72;;;;;;;7.13;100.00;102477.53;4956415;28;20050;-79
2021/12/14 07:15:26;;;;;;;54.40;33.03;;;;;;;7.12;100.00;102476.63;4953280;28;20531;-78
2021/12/14 07:18:04;;;;;;;60.28;35.47;;;;;;;7.13;100.00;102477.53;4957814;28;20042;-78
2021/12/14 07:20:38;;;;;;;60.72;35.47;;;;;;;7.14;100.00;102476.69;4976611;28;20034;-77
2021/12/14 07:23:31;;;;;;;63.33;34.75;;;;;;;7.15;100.00;102483.75;4963504;28;20054;-79
2021/12/14 07:26:03;;;;;;;57.50;33.22;;;;;;;7.16;100.00;102493.38;4963524;28;20787;-78
2021/12/14 07:28:40;;;;;;;57.95;34.40;;;;;;;7.16;100.00;102490.75;4970850;28;20046;-77
2021/12/14 07:31:15;;;;;;;58.10;35.50;;;;;;;7.17;100.00;102495.19;4960263;28;20037;-77
2021/12/14 07:33:58;;;;;;;52.05;33.03;;;;;;;7.17;100.00;102493.47;4948700;28;20057;-77
2021/12/14 07:36:31;;;;;;;65.82;34.83;;;;;;;7.18;100.00;102504.84;4946327;28;20042;-78
2021/12/14 07:39:04;;;;;;;56.17;33.90;;;;;;;7.18;100.00;102502.22;4961480;28;20172;-77
2021/12/14 07:41:35;;;;;;;55.28;34.45;;;;;;;7.19;100.00;102504.00;4941959;28;20046;-77
2021/12/14 07:44:28;;;;;;;55.83;33.83;;;;;;;7.18;100.00;102499.59;4987847;28;20050;-78
2021/12/14 07:47:19;;;;;;;62.67;36.08;;;;;;;7.19;100.00;102502.28;4980600;28;20554;-78
2021/12/14 07:49:54;;;;;;;61.55;36.85;;;;;;;7.19;100.00;102499.66;4946775;28;20265;-78
2021/12/14 07:52:35;;;;;;;63.85;34.95;;;;;;;7.19;100.00;102510.16;4966753;28;20053;-78
2021/12/14 07:55:18;;;;;;;60.03;33.63;;;;;;;7.19;100.00;102515.41;4964991;28;20076;-79
2021/12/14 07:57:48;;;;;;;63.83;36.78;;;;;;;7.19;100.00;102518.00;4951620;28;20041;-77
2021/12/14 08:00:23;;;;;;;63.50;37.70;;;;;;;7.20;100.00;102516.28;4953724;28;20061;-79
2021/12/14 08:02:58;;;;;;;66.18;37.78;;;;;;;7.20;100.00;102516.28;4942600;28;20543;-77
2021/12/14 08:05:42;;;;;;;58.70;34.47;;;;;;;7.21;100.00;102526.84;4981535;28;20409;-78
2021/12/14 08:08:18;;;;;;;63.63;35.75;;;;;;;7.22;100.00;102526.03;4969990;28;20039;-80
2021/12/14 08:11:16;;;;;;;66.68;37.15;;;;;;;7.24;100.00;102533.97;4959791;28;20324;-77
2021/12/14 08:13:48;;;;;;;68.30;35.58;;;;;;;7.23;100.00;102535.66;4949948;28;20220;-77
2021/12/14 08:16:18;;;;;;;65.90;35.60;;;;;;;7.25;100.00;102532.22;4947586;28;20050;-77
2021/12/14 08:18:47;;;;;;;65.88;35.47;;;;;;;7.25;100.00;102540.09;4962833;28;20065;-78
2021/12/14 08:21:20;;;;;;;69.20;37.88;;;;;;;7.25;100.00;102538.38;4938873;28;20038;-79
2021/12/14 08:23:57;;;;;;;64.70;35.65;;;;;;;7.28;100.00;102542.84;4927918;28;20228;-77
2021/12/14 08:26:40;;;;;;;76.25;38.03;;;;;;;7.28;100.00;102545.47;4960687;28;20050;-77
2021/12/14 08:29:18;;;;;;;75.68;38.25;;;;;;;7.29;100.00;102540.28;4964452;28;20043;-78
2021/12/14 08:32:03;;;;;;;70.43;37.65;;;;;;;7.30;100.00;102549.06;4983366;28;20256;-78
2021/12/14 08:34:37;;;;;;;70.38;36.53;;;;;;;7.29;100.00;102540.28;4944736;28;20055;-78
2021/12/14 08:37:30;;;;;;;65.78;37.42;;;;;;;7.30;100.00;102551.69;4953172;28;20408;-77
2021/12/14 08:40:29;;;;;;;78.22;40.00;;;;;;;7.29;100.00;102548.16;4955415;28;20451;-77
2021/12/14 08:43:13;;;;;;;69.88;37.33;;;;;;;7.30;100.00;102549.06;4915251;28;20316;-77
2021/12/14 08:45:53;;;;;;;75.70;37.90;;;;;;;7.32;100.00;102555.28;4968192;28;20043;-77
2021/12/14 08:48:23;;;;;;;71.35;38.17;;;;;;;7.31;100.00;102562.22;4974953;28;20058;-77
2021/12/14 08:51:02;;;;;;;76.43;38.67;;;;;;;7.31;100.00;102554.34;4957608;28;20031;-78
2021/12/14 08:53:34;;;;;;;84.75;39.55;;;;;;;7.32;100.00;102545.69;4945032;28;20046;-77
2021/12/14 08:56:07;;;;;;;76.75;39.05;;;;;;;7.32;100.00;102550.03;4980712;28;20268;-77
2021/12/14 08:58:37;;;;;;;80.05;39.88;;;;;;;7.33;100.00;102557.06;4954682;28;20498;-79
2021/12/14 09:01:19;;;;;;;72.95;39.95;;;;;;;7.32;100.00;102543.06;4973585;28;20058;-80
2021/12/14 09:03:54;;;;;;;74.50;38.42;;;;;;;7.33;100.00;102541.31;4923271;28;20093;-78
2021/12/14 09:06:29;;;;;;;74.18;37.10;;;;;;;7.33;100.00;102538.69;4948695;28;20520;-77
2021/12/14 09:09:06;;;;;;;82.10;40.88;;;;;;;7.34;100.00;102543.13;4971301;28;20274;-78
2021/12/14 09:11:37;;;;;;;91.55;42.38;;;;;;;7.33;100.00;102536.97;4947422;28;20044;-78
2021/12/14 09:14:13;;;;;;;91.30;40.53;;;;;;;7.35;100.00;102547.53;4953696;28;20066;-78
2021/12/14 09:16:47;;;;;;;104.72;45.90;;;;;;;7.36;100.00;102537.09;4956424;28;20515;-78
2021/12/14 09:19:18;;;;;;;100.43;43.67;;;;;;;7.37;100.00;102527.50;4935447;28;20062;-78
2021/12/14 09:21:53;;;;;;;104.55;44.20;;;;;;;7.37;100.00;102531.03;4913090;28;20425;-78
2021/12/14 09:24:26;;;;;;;121.50;47.83;;;;;;;7.38;100.00;102535.44;4936628;28;20040;-78
2021/12/14 09:26:59;;;;;;;102.20;42.67;;;;;;;7.37;100.00;102528.41;4958598;28;20058;-78
2021/12/14 09:29:29;;;;;;;118.43;48.65;;;;;;;7.38;100.00;102535.44;4938205;28;20050;-78
2021/12/14 09:32:01;;;;;;;125.03;47.38;;;;;;;7.40;100.00;102536.41;4945565;28;20158;-78
2021/12/14 09:34:32;;;;;;;105.28;45.67;;;;;;;7.40;100.00;102540.75;4942542;28;20063;-77
2021/12/14 09:37:04;;;;;;;109.70;43.67;;;;;;;7.42;100.00;102539.97;4941270;28;20039;-77
2021/12/14 09:39:36;;;;;;;109.72;46.05;;;;;;;7.43;100.00;102540.91;4965506;28;20546;-78
2021/12/14 09:42:10;;;;;;;133.07;48.90;;;;;;;7.44;100.00;102549.66;4956482;28;20050;-78
2021/12/14 09:44:39;;;;;;;123.85;46.60;;;;;;;7.44;100.00;102545.31;4955858;28;20043;-78
2021/12/14 09:47:17;;;;;;;116.85;45.42;;;;;;;7.45;100.00;102540.94;4921076;28;20043;-78
2021/12/14 09:49:49;;;;;;;124.25;48.10;;;;;;;7.45;100.00;102554.97;4951929;28;20250;-77
2021/12/14 09:52:26;;;;;;;115.90;47.13;;;;;;;7.45;100.00;102556.69;4929850;28;20031;-78
2021/12/14 09:54:56;;;;;;;122.25;48.15;;;;;;;7.45;100.00;102557.59;4957565;28;20050;-77
2021/12/14 09:57:37;;;;;;;118.75;49.65;;;;;;;7.45;100.00;102556.69;4968686;28;20381;-79
2021/12/14 10:00:18;;;;;;;120.88;48.55;;;;;;;7.45;100.00;102549.75;4963297;28;20055;-78
2021/12/14 10:02:49;;;;;;;116.57;46.13;;;;;;;7.44;100.00;102542.69;4968688;28;20574;-77
2021/12/14 10:05:22;;;;;;;126.82;49.22;;;;;;;7.45;100.00;102549.75;4994246;28;20499;-78
2021/12/14 10:07:54;;;;;;;141.98;49.00;;;;;;;7.45;100.00;102551.44;4950011;28;20608;-78
2021/12/14 10:10:22;;;;;;;118.50;45.38;;;;;;;7.46;100.00;102550.63;4976188;28;20053;-77
2021/12/14 10:12:55;;;;;;;113.63;46.00;;;;;;;7.45;100.00;102551.44;4953127;28;20140;-78
2021/12/14 10:15:53;;;;;;;127.07;47.20;;;;;;;7.47;100.00;102552.44;4992625;28;20042;-78
2021/12/14 10:18:57;;;;;;;119.10;47.65;;;;;;;7.48;100.00;102549.84;4949293;28;20396;-78
2021/12/14 10:21:32;;;;;;;120.82;48.35;;;;;;;7.50;100.00;102552.53;4952523;28;20057;-77
2021/12/14 10:24:05;;;;;;;115.63;48.15;;;;;;;7.50;100.00;102553.44;4950787;28;20034;-77
2021/12/14 10:26:39;;;;;;;118.45;48.70;;;;;;;7.52;100.00;102543.91;4972735;28;20123;-78
2021/12/14 10:29:08;;;;;;;143.85;50.92;;;;;;;7.53;100.00;102542.19;4969716;28;20492;-79
2021/12/14 10:31:45;;;;;;;111.97;47.40;;;;;;;7.54;100.00;102541.34;4966768;28;20530;-78
2021/12/14 10:34:25;;;;;;;112.80;48.47;;;;;;;7.56;100.00;102544.94;4981962;28;20049;-79
2021/12/14 10:37:09;;;;;;;109.95;46.70;;;;;;;7.57;100.00;102546.72;4948576;28;20351;-80
2021/12/14 10:42:39;;;;;;;101.95;46.53;;;;;;;7.58;100.00;102559.00;4955647;28;20045;-78
2021/12/14 10:45:08;;;;;;;87.93;42.78;;;;;;;7.61;100.00;102567.00;4980119;28;20049;-79
2021/12/14 10:47:38;;;;;;;97.20;43.60;;;;;;;7.62;100.00;102553.09;4955544;28;20043;-78
2021/12/14 10:50:11;;;;;;;86.37;40.43;;;;;;;7.64;100.00;102554.03;4964045;28;20391;-79
2021/12/14 10:52:43;;;;;;;86.90;40.50;;;;;;;7.66;100.00;102551.50;4975440;28;20304;-80
2021/12/14 10:55:27;;;;;;;100.25;46.47;;;;;;;7.67;100.00;102553.25;4947591;28;20158;-78
2021/12/14 10:57:56;;;;;;;96.38;44.38;;;;;;;7.69;100.00;102547.25;4967993;28;20400;-79
2021/12/14 11:00:44;;;;;;;97.53;42.78;;;;;;;7.71;100.00;102539.44;4939794;28;20076;-78
2021/12/14 11:03:17;;;;;;;102.47;44.78;;;;;;;7.69;100.00;102542.00;4955178;28;20074;-78
2021/12/14 11:05:51;;;;;;;109.35;45.63;;;;;;;7.71;100.00;102542.06;4959309;28;20088;-78
2021/12/14 11:08:41;;;;;;;100.65;44.58;;;;;;;7.73;100.00;102548.25;4981019;28;20622;-79
2021/12/14 11:11:15;;;;;;;98.55;42.70;;;;;;;7.72;100.00;102547.38;4962718;28;20049;-77
2021/12/14 11:13:48;;;;;;;100.90;42.90;;;;;;;7.73;100.00;102549.19;4990564;28;20054;-78
2021/12/14 11:18:07;;;;;;;93.78;42.88;;;;;;;7.74;100.00;102556.22;4960462;28;20042;-78
2021/12/14 11:19:15;;;;;;;88.63;42.75;;;;;;;7.74;100.00;102556.22;4977414;28;20072;-77
2021/12/14 11:21:44;;;;;;;90.78;42.58;;;;;;;7.75;100.00;102555.41;4960482;28;20049;-79
2021/12/14 11:24:13;;;;;;;90.38;42.58;;;;;;;7.76;100.00;102553.66;4974718;28;20049;-79
2021/12/14 11:26:42;;;;;;;90.95;41.58;;;;;;;7.75;100.00;102558.03;4955998;28;20050;-77
2021/12/14 11:29:15;;;;;;;87.13;41.88;;;;;;;7.76;100.00;102549.28;4944107;28;20058;-77
2021/12/14 11:31:48;;;;;;;92.15;42.05;;;;;;;7.78;100.00;102549.38;4975211;28;20403;-78
2021/12/14 11:34:37;;;;;;;93.68;42.33;;;;;;;7.79;100.00;102549.44;4955853;28;20527;-79
2021/12/14 11:37:14;;;;;;;84.72;38.03;;;;;;;7.81;100.00;102544.25;4964402;28;20061;-78
2021/12/14 11:39:51;;;;;;;97.30;40.47;;;;;;;7.81;100.00;102539.91;4966148;28;20538;-78
2021/12/14 11:42:24;;;;;;;89.13;40.83;;;;;;;7.84;100.00;102543.47;4972697;28;20157;-78
2021/12/14 11:45:25;;;;;;;82.85;39.88;;;;;;;7.84;100.00;102535.59;4980883;28;20034;-78
2021/12/14 11:47:58;;;;;;;88.40;38.95;;;;;;;7.84;100.00;102546.09;4933332;28;20057;-78
2021/12/14 11:50:41;;;;;;;84.28;37.58;;;;;;;7.85;100.00;102543.53;4975526;28;20092;-81
2021/12/14 11:53:11;;;;;;;94.97;39.70;;;;;;;7.85;100.00;102543.53;4993429;28;20283;-78
2021/12/14 11:55:44;;;;;;;89.07;38.25;;;;;;;7.87;100.00;102543.63;4948717;28;20042;-79
2021/12/14 11:58:33;;;;;;;90.53;37.58;;;;;;;7.87;100.00;102544.50;4953644;28;20049;-79
2021/12/14 12:01:21;;;;;;;77.20;36.70;;;;;;;7.89;100.00;102549.81;4966089;28;20051;-77
2021/12/14 12:04:11;;;;;;;100.18;40.08;;;;;;;7.89;100.00;102544.56;4990533;28;20038;-79
2021/12/14 12:09:28;;;;;;;92.00;38.22;;;;;;;7.90;100.00;102541.09;4974454;28;20050;-77
2021/12/14 12:09:42;;;;;;;88.05;37.30;;;;;;;7.91;100.00;102542.91;4979982;28;20404;-77
2021/12/14 12:12:19;;;;;;;101.13;41.70;;;;;;;7.93;100.00;102551.72;4944843;28;20712;-77
2021/12/14 12:15:09;;;;;;;97.75;39.92;;;;;;;7.92;100.00;102542.06;4986836;28;20042;-78
2021/12/14 12:17:56;;;;;;;93.50;38.90;;;;;;;7.92;100.00;102547.31;4964873;28;20053;-77
2021/12/14 12:20:48;;;;;;;88.53;36.97;;;;;;;7.92;100.00;102542.06;4965526;28;20046;-77
2021/12/14 12:23:22;;;;;;;91.20;36.90;;;;;;;7.91;100.00;102542.91;4945463;28;20050;-78
2021/12/14 12:25:59;;;;;;;116.50;39.85;;;;;;;7.92;100.00;102549.94;4955052;28;20049;-78
2021/12/14 12:28:33;;;;;;;102.72;38.83;;;;;;;7.91;100.00;102537.66;4957827;28;20042;-79